x

Gulf Of Maine - 78 Nm East Of Portsmouth, Nh (44005) Wave Buoy

2:50pm - Sat 25th Jun 2016 All times are EDT. -4 hours from GMT.

  • Sig Wave height 2.3ft
  • Swell Direction
  • Peak Period 8s
  • Average Period 6s
  • Wind
    7mph
  • Sea Temp 63°f
  • 空気 Temp 63°f
  • Sea Pressure 1023.7mb
  • Gulf Of Maine - 78 Nm East Of Portsmouth, Nh
  • Gulf Of Maine - 78 Nm East Of Portsmouth, Nh

More Historic Weather Station data

Upgrade to MSW Pro to gain access to the past 30 days of data for over 8000 Wavebouys and Weather Stations around the globe.

Join Pro

Comparision Forecast

View Surf forecast
   
Sat 06/25 2:50pm 2.5ft 8s 6s 7
mph
1023.7mb 63f 63f
1:50pm 2.5ft 8s 6s 4 7 mph 1024mb 63f 62f
12:50pm 2.5ft 8s 7s 4 7 mph 1023.9mb 62f 62f
11:50am 3ft 8s 7s 7 9 mph 1024mb 62f 62f
10:50am 3.5ft 7s 7s 4 7 mph 1024.3mb 61f 62f
9:50am 3.5ft 7s 7s 4
mph
1023.9mb 61f 62f
8:50am 2.5ft 8s 7s 4 9 mph 1023.6mb 60f 61f
7:50am 2.5ft 7s 7s 4 7 mph 1023.7mb 60f 61f
6:50am 2.5ft 8s 7s 7
mph
1023.2mb 60f 60f
5:50am 2ft 8s 7s 4
mph
1022.7mb 59f 60f
4:50am 2.5ft 9s 7s 4
mph
1022.1mb 59f 59f
3:50am 2ft 8s 6s 2 4 mph 1021.8mb 59f 60f
2:50am 2.5ft 9s 6s 4
mph
1021.8mb 59f 60f
1:50am 2.5ft 8s 6s 2 4 mph 1021.3mb 59f 60f
12:50am 2.5ft 8s 6s 7
mph
1021.2mb 59f 60f
Fri 06/24 11:50pm 2.5ft 8s 6s 4 7 mph 1021.1mb 59f 60f
10:50pm 2.5ft 8s 6s 7 9 mph 1021.3mb 59f 60f
9:50pm 2.5ft 8s 6s 9
mph
1021.4mb 60f 60f
8:50pm 2.5ft 7s 6s 7 9 mph 1020.8mb 60f 60f
7:50pm 2ft 7s 6s 9 11 mph 1020.6mb 60f 60f
6:50pm 2ft 7s 6s 9 11 mph 1020.2mb 61f 61f
5:50pm 2ft 8s 6s 11
mph
1019.9mb 61f 61f
4:50pm 2ft 8s 6s 9
mph
1019.7mb 62f 61f
3:50pm 2ft 8s 6s 7
mph
1019.7mb 63f 61f
2:50pm 2ft 8s 6s 7
mph
1019.5mb 63f 61f
1:50pm 2.5ft 6s 6s 2 4 mph 1019.3mb 61f 61f
12:50pm 2.5ft 6s 6s 4
mph
1019.2mb 61f 60f
11:50am 2.5ft 7s 6s 4
mph
1019.3mb 60f 60f
10:50am 2.5ft 7s 6s 7 9 mph 1018.8mb 60f 60f
9:50am 3ft 7s 6s 9
mph
1018.2mb 60f 60f
8:50am 2.5ft 8s 6s 9 11 mph 1017.5mb 59f 60f
7:50am 2.5ft 7s 6s 9 13 mph 1016.7mb 59f 60f
6:50am 2.5ft 8s 6s 13 16 mph 1015.5mb 59f 60f
5:50am 2.5ft 8s 6s 11 13 mph 1014.7mb 59f 61f
4:50am 2.5ft 8s 6s 7
mph
1013.9mb 59f 60f
3:50am 2.5ft 8s 6s 2
mph
1013.1mb 59f 59f
2:50am 3ft 8s 6s 2
mph
1012.7mb 59f 59f
1:50am 2.5ft 9s 6s 2
mph
1012.3mb 59f 60f
12:50am 3ft 7s 6s  -  2 mph 1012.3mb 59f 60f
Thu 06/23 11:50pm 3.5ft 7s 6s 7 13 mph 1012.4mb 59f 60f
10:50pm 3.5ft 8s 6s 7
mph
1011.8mb 59f 60f
9:50pm 3.5ft 8s 6s 7
mph
1011.8mb 59f 61f
8:50pm 4.5ft 8s 7s 13 16 mph 1010.9mb 60f 62f
7:50pm 3.5ft 8s 7s 9 11 mph 1010.9mb 60f 61f
6:50pm 3.5ft 8s 7s 7 9 mph 1011mb 61f 61f
5:50pm 3.5ft 8s 7s 9 11 mph 1011mb 61f 61f
4:50pm 3ft 8s 7s 9 11 mph 1011.1mb 61f 61f
3:50pm 3ft 8s 7s 9 11 mph 1011.3mb 62f 62f
2:50pm 2.5ft 8s 6s 7 9 mph 1011.7mb 62f 62f
1:50pm 3ft 8s 6s 7 9 mph 1011.8mb 61f 62f
12:50pm 3.5ft 8s 6s 7
mph
1011.9mb 61f 62f
11:50am 3.5ft 8s 7s 7
mph
1012.7mb 60f 61f
10:50am 4ft 8s 6s 2 4 mph 1012.6mb 59f 60f
9:50am 4ft 7s 7s 7 9 mph 1012.8mb 58f 60f
8:50am 5ft 8s 7s 9 11 mph 1013mb 58f 59f
7:50am 5ft 8s 7s 7
mph
1012.4mb 58f 59f
6:50am 5ft 8s 8s 9 11 mph 1012.2mb 58f 59f
5:50am 4.5ft 8s 7s 9 11 mph 1012.1mb 58f 59f
3:50am 3.5ft 9s 7s 9
mph
1011.2mb 58f 59f
2:50am 3.5ft 9s 7s 4 7 mph 1010.9mb 58f 59f
1:50am 3.5ft 9s 7s 9 11 mph 1011.3mb 58f 59f
12:50am 3ft 9s 6s 9
mph
1011.5mb 58f 59f
Wed 06/22 11:50pm 3.5ft 8s 6s 7 9 mph 1011.5mb 58f 58f
10:50pm 3.5ft 8s 6s 4
mph
1011.3mb 58f 59f
9:50pm 3.5ft 8s 6s 4
mph
1011.5mb 58f 59f
8:50pm 4.5ft 8s 6s 9 11 mph 1010.7mb 58f 60f
7:50pm 5ft 8s 6s 11 16 mph 1009.9mb 58f 60f
6:50pm 4.5ft 8s 6s 13 16 mph 1009mb 58f 60f
5:50pm 4.5ft 8s 6s 16
mph
1008.4mb 58f 60f
4:50pm 4.5ft 8s 6s 13 16 mph 1008.2mb 58f 61f
3:50pm 4ft 8s 5s 7 11 mph 1008.5mb 58f 60f
2:50pm 3.5ft 8s 6s 25 34 mph 1008.9mb 60f 61f
1:50pm 3.5ft 8s 6s 7 9 mph 1007.3mb 61f 62f
12:50pm 3.5ft 8s 6s 2 4 mph 1008mb 60f 62f
11:50am 4.5ft 8s 6s 2
mph
1008mb 59f 61f
10:50am 4.5ft 8s 6s 2 4 mph 1008.5mb 59f 60f
9:50am 4.5ft 8s 6s 4 7 mph 1008.1mb 58f 61f
8:50am 4.5ft 8s 7s 7
mph
1008mb 58f 60f
7:50am 4ft 8s 6s 4
mph
1008.3mb 57f 62f
6:50am 4ft 9s 6s 4
mph
1008.2mb 57f 61f
5:50am 3.5ft 9s 6s 2 4 mph 1008.3mb 57f 61f
3:50am 3.5ft 9s 6s  -  mph 1008.1mb 57f 60f
2:50am 3.5ft 8s 6s  -  mph 1007.8mb 57f 61f
1:50am 3.5ft 8s 6s  -  2 mph 1007.7mb 57f 62f
12:50am 4ft 10s 6s 2 7 mph 1007.8mb 57f 62f
Tue 06/21 11:50pm 3.5ft 11s 6s 7 9 mph 1007.9mb 57f 60f
10:50pm 4.5ft 10s 6s 7
mph
1008mb 57f 62f
9:50pm 4.5ft 10s 6s 9 11 mph 1007.7mb 58f 62f
8:50pm 4.5ft 11s 6s 9 11 mph 1006.2mb 58f 62f
7:50pm 4.5ft 11s 6s 11 13 mph 1005.7mb 58f 61f